Nearby METAR Reports

 

KHYS - Hays, Kansas
Distance from station: SE 3mi, 5km
Updated: Fri, 18-Apr-2014 8:15am CDT
Clear
Clear
 Wind from SSE
Wind: SSE 7 mph , 11 km/h
Temperature: 37°F , 3°C
Wind Chill: 32°F , 0°C
Dew Point: 34°F , 1°C
Humidity: 87%
Barometer: 30.20 inHg , 1022.7 hPa
Clouds: Clear
Visibility: 8 miles , 13 km
2014/04/18 13:15 KHYS 181315Z AUTO 16006KT 8SM CLR 03/01 A3020 RMK AO1
KCOS - Colorado Springs, Colorado
Distance from station: W 322mi, 518km
Updated: Fri, 18-Apr-2014 7:54am CDT
Mostly cloudy
Mostly cloudy
 Wind from NNE
Wind: NNE 8 mph , 13 km/h
Temperature: 37°F , 3°C
Wind Chill: 31°F , -1°C
Dew Point: 30°F , -1°C
Humidity: 75%
Barometer: 30.08 inHg , 1018.6 hPa
Clouds: Mostly cloudy
Visibility: 10 miles , 16 km
Cloud details: Mostly cloudy 25000 ft
2014/04/18 12:54 KCOS 181254Z 03007KT 10SM BKN250 03/M01 A3008 RMK AO2 SLP172 T00281011
 
KRSL - Russell, Kansas
Distance from station: E 26mi, 42km
Updated: Fri, 18-Apr-2014 7:53am CDT
Clear
Clear
 Wind from S
Wind: S 9 mph , 15 km/h
Temperature: 39°F , 4°C
Wind Chill: 33°F , 1°C
Dew Point: 34°F , 1°C
Humidity: 81%
Barometer: 30.20 inHg , 1022.7 hPa
Clouds: Clear
Visibility: 7 miles , 11 km
2014/04/18 12:53 KRSL 181253Z AUTO 17008KT 7SM CLR 04/01 A3020 RMK AO2 SLP234 T00390011 TSNO
KGLD - Goodland, Kansas
Distance from station: WNW 133mi, 214km
Updated: Fri, 18-Apr-2014 7:53am CDT
Mist, Clear
Mist, Clear
 Wind from S
Wind: S 18 mph , 30 km/h
Temperature: 36°F , 2°C
Wind Chill: 26°F , -3°C
Dew Point: 34°F , 1°C
Humidity: 93%
Barometer: 30.07 inHg , 1018.3 hPa
Summary: Mist
Clouds: Clear
Visibility: 6 miles , 10 km
2014/04/18 12:53 KGLD 181253Z AUTO 18016KT 6SM BR CLR 02/01 A3007 RMK AO2 SLP184 T00170006
 
KGBD - Great Bend, Kansas
Distance from station: SSE 44mi, 70km
Updated: Fri, 18-Apr-2014 8:15am CDT
Clear
Clear
 Wind from SSW
Wind: SSW 5 mph , 7 km/h
Temperature: 37°F , 3°C
Wind Chill: 33°F , 1°C
Dew Point: 34°F , 1°C
Humidity: 87%
Barometer: 30.22 inHg , 1023.4 hPa
Clouds: Clear
Visibility: 5 miles , 8 km
2014/04/18 13:15 KGBD 181315Z AUTO 20004KT 5SM CLR 03/01 A3022 RMK AO1
KHSI - Hastings, Nebraska
Distance from station: NNE 127mi, 204km
Updated: Fri, 18-Apr-2014 7:53am CDT
Clear
Clear
 Wind from S
Wind: S 10 mph , 17 km/h
Temperature: 39°F , 4°C
Wind Chill: 32°F , 0°C
Dew Point: 34°F , 1°C
Humidity: 81%
Barometer: 30.18 inHg , 1022 hPa
Clouds: Clear
Visibility: 9 miles , 14 km
2014/04/18 12:53 KHSI 181253Z AUTO 17009KT 9SM CLR 04/01 A3018 RMK AO2 SLP225 T00390006
 
KEWK - Newton, Kansas
Distance from station: ESE 25mi, 201km
Updated: Fri, 18-Apr-2014 8:15am CDT
Clear
Clear
 Wind from S
Wind: S 5 mph , 7 km/h
Temperature: 39°F , 4°C
Wind Chill: 35°F , 2°C
Dew Point: 34°F , 1°C
Humidity: 81%
Barometer: 30.32 inHg , 1026.8 hPa
Clouds: Clear
Visibility: 2 1/2 miles , 2 km
2014/04/18 13:15 KEWK 181315Z AUTO 17004KT 2 1/2SM CLR 04/01 A3032 RMK AO1
KICT - Wichita, Kansas
Distance from station: SE 132mi, 213km
Updated: Fri, 18-Apr-2014 7:53am CDT
Mist, Few clouds
Mist, Few clouds
 Wind from calm
Wind: Calm
Temperature: 37°F , 3°C
Dew Point: 34°F , 1°C
Humidity: 87%
Barometer: 30.29 inHg , 1025.7 hPa
Summary: Mist
Clouds: Few Clouds
Visibility: 1 1/2 miles , 2 km
Cloud details: Few Clouds 25000 ft
2014/04/18 12:53 KICT 181253Z 00000KT 1 1/2SM BR FEW250 03/01 A3029 RMK AO2 TWR VIS 2 SLP261 T00280011
 
KHLC - Hill City, Kansas
Distance from station: NW 44mi, 71km
Updated: Fri, 18-Apr-2014 7:53am CDT
Clear
Clear
 Wind from calm
Wind: Calm
Temperature: 37°F , 3°C
Dew Point: 36°F , 2°C
Humidity: 93%
Barometer: 30.16 inHg , 1021.3 hPa
Clouds: Clear
Visibility: 7 miles , 11 km
2014/04/18 12:53 KHLC 181253Z AUTO 00000KT 7SM CLR 03/02 A3016 RMK AO2 SLP217 T00330017
KDDC - Dodge City, Kansas
Distance from station: SSW 85mi, 137km
Updated: Fri, 18-Apr-2014 8:05am CDT
Mist, Clear
Mist, Clear
 Wind from S
Wind: S 12 mph , 19 km/h
Temperature: 39°F , 4°C
Wind Chill: 32°F , 0°C
Dew Point: 36°F , 2°C
Humidity: 87%
Barometer: 30.19 inHg , 1022.4 hPa
Summary: Mist
Clouds: Clear
Visibility: 3 miles , 5 km
2014/04/18 13:05 KDDC 181305Z AUTO 19010KT 3SM BR CLR 04/02 A3019 RMK AO2 T00390022
 
KPTT - Pratt Indust, Kansas
Distance from station: SSE 87mi, 140km
Updated: Fri, 18-Apr-2014 7:55am CDT
Mist, Clear
Mist, Clear
 Wind from S
Wind: S 7 mph , 11 km/h
Temperature: 36°F , 2°C
Wind Chill: 30°F , -1°C
Dew Point: 34°F , 1°C
Humidity: 93%
Barometer: 30.25 inHg , 1024.4 hPa
Summary: Mist
Clouds: Clear
Visibility: 3 miles , 5 km
2014/04/18 12:55 KPTT 181255Z AUTO 19006KT 3SM BR CLR 02/01 A3025 RMK AO2
KCBK - Colby, Kansas
Distance from station: WNW 101mi, 163km
Updated: Fri, 18-Apr-2014 7:50am CDT
Clear
Clear
 Wind from S
Wind: S 15 mph , 24 km/h, Gust: 22 mph , 35 km/h
Temperature: 37°F , 3°C
Wind Chill: 28°F , -2°C
Dew Point: 37°F , 3°C
Humidity: 100%
Barometer: 30.10 inHg , 1019.3 hPa
Clouds: Clear
Visibility: 7 miles , 11 km
2014/04/18 12:50 KCBK 181250Z AUTO 19013G19KT 7SM CLR 03/03 A3010 RMK AO2
 
KHDE - Holdrege/Brewstr, Nebraska
Distance from station: N 108mi, 174km
Updated: Fri, 18-Apr-2014 7:55am CDT
Clear
Clear
 Wind from S
Wind: S 12 mph , 19 km/h
Temperature: 39°F , 4°C
Wind Chill: 32°F , 0°C
Dew Point: 36°F , 2°C
Humidity: 87%
Barometer: 30.14 inHg , 1020.7 hPa
Clouds: Clear
Visibility: 10 miles , 16 km
2014/04/18 12:55 KHDE 181255Z AUTO 18010KT 10SM CLR 04/02 A3014 RMK AO2 T00410021
KGCK - Garden City, Kansas
Distance from station: SW 102mi, 164km
Updated: Fri, 18-Apr-2014 7:54am CDT
Mist, Clear
Mist, Clear
 Wind from S
Wind: S 12 mph , 19 km/h
Temperature: 39°F , 4°C
Wind Chill: 32°F , 0°C
Dew Point: 37°F , 3°C
Humidity: 93%
Barometer: 30.16 inHg , 1021.3 hPa
Summary: Mist
Clouds: Clear
Visibility: 4 miles , 6 km
2014/04/18 12:54 KGCK 181254Z 19010KT 4SM BR CLR 04/03 A3016 RMK AO2 SLP216 T00440028
 
KSLN - Salina, Kansas
Distance from station: E 89mi, 143km
Updated: Fri, 18-Apr-2014 7:53am CDT
Haze, Clear
Haze, Clear
 Wind from SE
Wind: SE 6 mph , 9 km/h
Temperature: 37°F , 3°C
Wind Chill: 32°F , 0°C
Dew Point: 32°F , 0°C
Humidity: 81%
Barometer: 30.28 inHg , 1025.4 hPa
Summary: Haze
Clouds: Clear
Visibility: 2 miles , 3 km
2014/04/18 12:53 KSLN 181253Z 14005KT 2SM HZ CLR 03/00 A3028 RMK AO2 SLP258 T00280000
KFTG - Denver, Colorado
Distance from station: WNW 341mi, 548km
Updated: Thu, 17-Apr-2014 3:49pm CDT
NOT Current
Partly cloudy
Partly cloudy
 Wind from SW
Wind: SW 5 mph , 7 km/h
Temperature: 63°F , 17°C
Dew Point: 21°F , -6°C
Humidity: 20%
Barometer: 30.04 inHg , 1017.3 hPa
Clouds: Partly cloudy
Visibility: 50 miles , 80 km
Cloud details: Partly cloudy 9500 ft
Partly cloudy 22000 ft
2014/04/17 20:49 KFTG 172049Z 22004KT 50SM SCT095 SCT220 17/M06 A3004